createdAt,value
2018-12-29T00:02:24.792Z,53.97
2018-12-29T00:04:56.185Z,58.50
2018-12-29T00:07:26.971Z,59.00
2018-12-29T00:09:58.361Z,57.40
2018-12-29T00:12:29.211Z,55.03
2018-12-29T00:15:00.592Z,61.67
2018-12-29T00:17:31.679Z,57.10
2018-12-29T00:20:02.873Z,54.07
2018-12-29T00:25:55.916Z,58.97
2018-12-29T00:32:25.250Z,57.30
2018-12-29T00:34:56.796Z,53.17
2018-12-29T00:37:27.889Z,53.13
2018-12-29T00:39:59.427Z,58.20
2018-12-29T00:42:30.214Z,59.30
2018-12-29T00:45:02.686Z,55.90
2018-12-29T00:47:35.478Z,55.17
2018-12-29T00:50:06.666Z,56.43
2018-12-29T00:52:38.520Z,57.70
2018-12-29T00:55:09.878Z,60.60
2018-12-29T00:57:40.969Z,56.20
2018-12-29T01:00:12.011Z,53.90
2018-12-29T01:02:43.519Z,60.43
2018-12-29T01:05:14.824Z,62.53
2018-12-29T01:07:46.196Z,58.00
2018-12-29T01:10:26.297Z,60.97
2018-12-29T01:12:57.129Z,61.17
2018-12-29T01:15:28.256Z,61.33
2018-12-29T01:17:59.299Z,57.50
2018-12-29T01:20:30.455Z,58.70
2018-12-29T01:23:01.497Z,62.93
2018-12-29T01:25:32.703Z,59.43
2018-12-29T01:28:29.103Z,56.67
2018-12-29T01:31:19.341Z,63.60
2018-12-29T01:37:22.826Z,58.40
2018-12-29T01:39:53.828Z,57.20
2018-12-29T01:42:24.673Z,60.63
2018-12-29T01:44:56.940Z,62.93
2018-12-29T01:47:28.012Z,61.23
2018-12-29T01:49:59.265Z,66.70
2018-12-29T01:52:30.352Z,59.17
2018-12-29T01:55:01.536Z,58.20
2018-12-29T01:57:44.480Z,57.57
2018-12-29T02:00:15.561Z,58.03
2018-12-29T02:06:37.849Z,58.57
2018-12-29T02:09:28.859Z,63.07
2018-12-29T02:15:38.948Z,64.50
2018-12-29T02:18:48.308Z,66.70
2018-12-29T02:21:59.568Z,64.47
2018-12-29T02:24:30.980Z,62.53
2018-12-29T02:27:02.132Z,61.13
2018-12-29T02:29:33.784Z,62.47
2018-12-29T02:32:05.025Z,66.07
2018-12-29T02:38:11.318Z,62.20
2018-12-29T02:40:42.921Z,62.57
2018-12-29T02:43:13.783Z,65.70
2018-12-29T02:52:07.151Z,58.83
2018-12-29T02:54:38.544Z,59.53
2018-12-29T02:57:09.330Z,57.87
2018-12-29T03:06:32.706Z,47.40
2018-12-29T03:09:26.862Z,45.80
2018-12-29T03:11:57.923Z,47.37
2018-12-29T03:14:29.056Z,43.43
2018-12-29T03:17:00.176Z,46.23
2018-12-29T03:19:31.583Z,46.10
2018-12-29T03:22:02.694Z,47.57
2018-12-29T03:24:34.204Z,43.27
2018-12-29T03:27:05.571Z,50.20
2018-12-29T03:29:36.644Z,54.23
2018-12-29T03:32:08.077Z,53.73
2018-12-29T03:34:39.065Z,49.53
2018-12-29T03:37:10.195Z,53.30
2018-12-29T03:39:41.189Z,48.83
2018-12-29T03:42:12.192Z,51.13
2018-12-29T03:44:43.439Z,54.30
2018-12-29T03:47:14.302Z,53.00
2018-12-29T03:49:45.329Z,50.07
2018-12-29T03:52:16.399Z,49.60
2018-12-29T03:54:47.745Z,52.07
2018-12-29T03:57:19.339Z,50.60
2018-12-29T03:59:50.597Z,44.40
2018-12-29T04:02:21.935Z,50.70
2018-12-29T04:04:52.986Z,49.60
2018-12-29T04:07:24.145Z,48.13
2018-12-29T04:09:55.806Z,44.23
2018-12-29T04:12:28.982Z,46.13
2018-12-29T04:15:00.004Z,51.03
2018-12-29T04:17:31.133Z,45.27
2018-12-29T04:20:02.156Z,46.87
2018-12-29T04:22:32.938Z,46.33
2018-12-29T04:25:04.417Z,48.37
2018-12-29T04:27:35.724Z,47.73
2018-12-29T04:30:07.097Z,45.57
2018-12-29T04:32:38.387Z,47.43
2018-12-29T04:35:09.383Z,44.83
2018-12-29T04:37:40.485Z,43.70
2018-12-29T04:40:11.506Z,49.20
2018-12-29T04:42:42.259Z,44.87
2018-12-29T04:45:13.291Z,42.23
2018-12-29T04:47:44.590Z,46.30
2018-12-29T04:50:15.673Z,48.10
2018-12-29T04:52:46.939Z,46.67
2018-12-29T04:55:18.020Z,43.97
2018-12-29T04:57:49.381Z,43.77
2018-12-29T05:00:20.456Z,42.73
2018-12-29T05:02:51.838Z,42.70
2018-12-29T05:05:22.831Z,44.87
2018-12-29T05:07:54.196Z,43.13
2018-12-29T05:10:24.971Z,50.13
2018-12-29T05:12:56.288Z,47.53
2018-12-29T05:15:27.347Z,49.73
2018-12-29T05:17:58.478Z,53.07
2018-12-29T05:20:29.766Z,49.03
2018-12-29T05:23:00.756Z,49.80
2018-12-29T05:25:32.044Z,50.73
2018-12-29T05:28:03.320Z,51.27
2018-12-29T05:30:34.104Z,51.50
2018-12-29T05:33:05.145Z,48.93
2018-12-29T05:35:36.203Z,51.37
2018-12-29T05:38:07.033Z,51.87
2018-12-29T05:40:38.516Z,50.17
2018-12-29T05:43:09.711Z,54.43
2018-12-29T05:45:40.710Z,50.97
2018-12-29T05:48:11.785Z,51.97
2018-12-29T05:50:42.721Z,52.40
2018-12-29T05:53:14.385Z,51.43
2018-12-29T05:55:45.692Z,50.97
2018-12-29T05:58:16.587Z,52.77
2018-12-29T06:00:48.680Z,52.50
2018-12-29T06:03:23.080Z,50.30
2018-12-29T06:05:54.605Z,53.03
2018-12-29T06:08:25.720Z,49.87
2018-12-29T06:10:56.520Z,46.57
2018-12-29T06:13:27.523Z,51.70
2018-12-29T06:15:59.064Z,50.53
2018-12-29T06:18:30.771Z,49.10
2018-12-29T06:21:01.914Z,49.80
2018-12-29T06:23:32.960Z,51.10
2018-12-29T06:26:04.207Z,46.57
2018-12-29T06:28:35.710Z,48.23
2018-12-29T06:31:06.793Z,47.70
2018-12-29T06:33:38.125Z,47.20
2018-12-29T06:36:09.029Z,48.27
2018-12-29T06:38:40.120Z,49.10
2018-12-29T06:41:10.885Z,52.63
2018-12-29T06:43:41.975Z,47.33
2018-12-29T06:46:13.085Z,53.63
2018-12-29T06:48:44.521Z,50.77
2018-12-29T06:51:15.566Z,50.70
2018-12-29T06:53:46.346Z,50.07
2018-12-29T06:56:17.680Z,49.03
2018-12-29T06:58:49.207Z,51.87
2018-12-29T07:01:20.842Z,46.93
2018-12-29T07:03:51.961Z,49.53
2018-12-29T07:06:23.268Z,51.83
2018-12-29T07:08:55.282Z,47.87
2018-12-29T07:11:26.298Z,50.40
2018-12-29T07:13:57.363Z,48.97
2018-12-29T07:16:28.179Z,49.77
2018-12-29T07:18:59.077Z,49.50
2018-12-29T07:21:30.124Z,46.47
2018-12-29T07:24:01.420Z,47.53
2018-12-29T07:26:32.508Z,50.33
2018-12-29T07:29:04.205Z,49.20
2018-12-29T07:31:34.992Z,53.90
2018-12-29T07:34:06.539Z,52.70
2018-12-29T07:36:38.078Z,52.93
2018-12-29T07:39:09.175Z,50.57
2018-12-29T07:41:40.722Z,53.10
2018-12-29T07:44:11.973Z,50.57
2018-12-29T07:46:49.440Z,52.50
2018-12-29T07:49:16.111Z,52.60
2018-12-29T07:51:46.901Z,52.10
2018-12-29T07:54:18.006Z,52.17
2018-12-29T07:56:49.248Z,53.23
2018-12-29T07:59:20.273Z,54.23
2018-12-29T08:01:51.642Z,48.10
2018-12-29T08:04:22.413Z,54.00
2018-12-29T08:06:53.434Z,53.93
2018-12-29T08:09:24.987Z,54.30
2018-12-29T08:11:56.375Z,53.27
2018-12-29T08:14:27.416Z,51.60
2018-12-29T08:16:58.701Z,48.93
2018-12-29T08:19:29.703Z,49.20
2018-12-29T08:22:01.299Z,44.67
2018-12-29T08:24:32.384Z,49.07
2018-12-29T08:27:03.447Z,49.13
2018-12-29T08:29:34.600Z,44.20
2018-12-29T08:32:05.801Z,48.23
2018-12-29T08:34:36.645Z,46.33
2018-12-29T08:37:08.265Z,47.53
2018-12-29T08:39:39.782Z,45.00
2018-12-29T08:42:11.048Z,46.00
2018-12-29T08:44:42.047Z,47.03
2018-12-29T08:47:13.061Z,45.90
2018-12-29T08:49:44.139Z,46.87
2018-12-29T08:52:15.419Z,45.23
2018-12-29T08:54:46.558Z,48.03
2018-12-29T08:57:17.580Z,44.27
2018-12-29T08:59:48.562Z,41.60
2018-12-29T09:02:19.600Z,43.97
2018-12-29T09:04:50.692Z,40.47
2018-12-29T09:07:22.544Z,43.87
2018-12-29T09:09:54.171Z,43.43
2018-12-29T09:12:24.931Z,42.97
2018-12-29T09:14:56.188Z,46.13
2018-12-29T09:17:27.020Z,44.17
2018-12-29T09:19:58.296Z,44.07
2018-12-29T09:22:29.319Z,44.37
2018-12-29T09:25:00.393Z,46.33
2018-12-29T09:27:31.552Z,46.57
2018-12-29T09:30:02.684Z,47.20
2018-12-29T09:32:34.086Z,44.83
2018-12-29T09:35:05.628Z,45.53
2018-12-29T09:37:36.892Z,42.20
2018-12-29T09:40:08.035Z,41.77
2018-12-29T09:42:39.256Z,41.43
2018-12-29T09:45:10.256Z,43.03
2018-12-29T09:47:41.027Z,43.70
2018-12-29T09:50:12.103Z,46.10
2018-12-29T09:52:43.299Z,42.77
2018-12-29T09:55:14.852Z,44.70
2018-12-29T09:57:46.239Z,41.87
2018-12-29T10:00:17.330Z,41.77
2018-12-29T10:02:48.330Z,40.80
2018-12-29T10:05:19.641Z,39.13
2018-12-29T10:07:50.707Z,41.87
2018-12-29T10:10:21.597Z,40.17
2018-12-29T10:12:52.602Z,40.40
2018-12-29T10:15:23.693Z,39.53
2018-12-29T10:17:54.685Z,41.57
2018-12-29T10:20:25.541Z,36.93
2018-12-29T10:22:56.306Z,40.50
2018-12-29T10:25:27.150Z,37.93
2018-12-29T10:27:58.481Z,39.50
2018-12-29T10:30:29.492Z,40.03
2018-12-29T10:33:00.332Z,40.20
2018-12-29T10:35:31.612Z,43.50
2018-12-29T10:38:02.773Z,44.60
2018-12-29T10:40:34.048Z,39.30
2018-12-29T10:43:05.312Z,44.40
2018-12-29T10:45:36.758Z,44.20
2018-12-29T10:48:08.441Z,39.17
2018-12-29T10:50:40.084Z,41.17
2018-12-29T10:53:11.104Z,39.13
2018-12-29T10:55:42.105Z,41.47
2018-12-29T10:58:13.098Z,39.80
2018-12-29T11:00:44.103Z,40.63
2018-12-29T11:03:15.660Z,45.07
2018-12-29T11:05:46.735Z,41.00
2018-12-29T11:08:18.276Z,41.67
2018-12-29T11:10:49.168Z,40.00
2018-12-29T11:13:20.450Z,41.13
2018-12-29T11:15:51.739Z,43.27
2018-12-29T11:18:22.945Z,41.07
2018-12-29T11:20:53.756Z,42.90
2018-12-29T11:23:24.746Z,43.47
2018-12-29T11:25:55.784Z,41.97
2018-12-29T11:28:26.869Z,44.40
2018-12-29T11:30:58.182Z,41.87
2018-12-29T11:33:29.425Z,45.27
2018-12-29T11:36:00.436Z,47.10
2018-12-29T11:38:31.677Z,46.53
2018-12-29T11:41:02.704Z,47.13
2018-12-29T11:43:33.952Z,44.87
2018-12-29T11:46:04.869Z,45.13
2018-12-29T11:48:35.914Z,40.77
2018-12-29T11:51:06.751Z,42.97
2018-12-29T11:53:38.088Z,45.00
2018-12-29T11:56:09.097Z,43.20
2018-12-29T11:58:40.120Z,40.40
2018-12-29T12:01:11.395Z,42.23
2018-12-29T12:03:42.617Z,42.60
2018-12-29T12:06:13.980Z,44.33
2018-12-29T12:08:45.499Z,44.13
2018-12-29T12:11:16.868Z,48.60
2018-12-29T12:13:48.653Z,50.07
2018-12-29T12:16:19.696Z,46.33
2018-12-29T12:18:50.527Z,55.30
2018-12-29T12:21:21.736Z,46.90
2018-12-29T12:23:53.005Z,48.93
2018-12-29T12:26:24.365Z,44.73
2018-12-29T12:28:55.431Z,51.17
2018-12-29T12:31:26.800Z,46.70
2018-12-29T12:33:58.075Z,47.23
2018-12-29T12:36:29.525Z,44.43
2018-12-29T12:39:00.812Z,48.50
2018-12-29T12:41:33.870Z,58.40
2018-12-29T12:44:05.099Z,48.43
2018-12-29T12:46:37.705Z,73.17
2018-12-29T12:49:09.185Z,52.17
2018-12-29T12:51:40.563Z,46.33
2018-12-29T12:54:12.376Z,46.40
2018-12-29T12:56:43.238Z,50.23
2018-12-29T12:59:14.436Z,51.40
2018-12-29T13:01:46.893Z,55.43
2018-12-29T13:04:18.511Z,48.87
2018-12-29T13:06:49.620Z,44.53
2018-12-29T13:09:20.646Z,50.73
2018-12-29T13:11:51.692Z,65.13
2018-12-29T13:14:22.788Z,48.97
2018-12-29T13:16:54.051Z,46.20
2018-12-29T13:19:28.685Z,48.70
2018-12-29T13:21:58.093Z,46.03
2018-12-29T13:24:29.221Z,47.50
2018-12-29T13:27:00.328Z,47.77
2018-12-29T13:30:30.756Z,52.53
2018-12-29T13:33:01.704Z,47.43
2018-12-29T13:38:24.762Z,45.63
2018-12-29T13:40:55.980Z,50.20
2018-12-29T13:43:27.347Z,42.97
2018-12-29T13:45:58.995Z,49.77
2018-12-29T13:48:29.805Z,49.60
2018-12-29T13:51:01.085Z,46.80
2018-12-29T13:53:31.933Z,41.63
2018-12-29T13:56:02.740Z,48.50
2018-12-29T13:58:34.011Z,46.73
2018-12-29T14:01:05.749Z,45.93
2018-12-29T14:03:36.824Z,43.70
2018-12-29T14:06:07.839Z,44.37
2018-12-29T14:08:39.222Z,49.23
2018-12-29T14:11:10.205Z,42.37
2018-12-29T14:13:41.609Z,48.87
2018-12-29T14:16:13.241Z,42.87
2018-12-29T14:18:44.278Z,41.57
2018-12-29T14:21:15.399Z,43.03
2018-12-29T14:23:46.972Z,45.73
2018-12-29T14:26:18.036Z,44.37
2018-12-29T14:28:49.049Z,44.40
2018-12-29T14:31:20.532Z,65.13
2018-12-29T14:33:51.532Z,48.03
2018-12-29T14:36:22.313Z,42.57
2018-12-29T14:38:53.650Z,42.13
2018-12-29T14:41:24.980Z,43.30
2018-12-29T14:43:56.538Z,44.20
2018-12-29T14:46:27.365Z,41.97
2018-12-29T14:48:59.977Z,43.87
2018-12-29T14:51:31.319Z,44.10
2018-12-29T14:54:02.405Z,43.50
2018-12-29T14:56:52.831Z,44.90
2018-12-29T14:59:50.248Z,43.70
2018-12-29T15:02:35.525Z,45.37
2018-12-29T15:05:20.605Z,44.50
2018-12-29T15:07:51.635Z,41.90
2018-12-29T15:10:22.998Z,41.50
2018-12-29T15:12:54.617Z,43.33
2018-12-29T15:15:26.231Z,41.47
2018-12-29T15:17:57.495Z,43.90
2018-12-29T15:20:29.088Z,43.33
2018-12-29T15:23:00.781Z,44.97
2018-12-29T15:25:31.809Z,45.07
2018-12-29T15:28:03.005Z,43.53
2018-12-29T15:31:14.230Z,43.90
2018-12-29T15:34:12.076Z,42.60
2018-12-29T15:40:23.797Z,41.63
2018-12-29T15:42:56.812Z,43.10
2018-12-29T15:45:38.329Z,45.00
2018-12-29T15:48:09.375Z,42.40
2018-12-29T15:50:40.497Z,43.70
2018-12-29T15:53:11.609Z,45.17
2018-12-29T15:55:42.888Z,44.50
2018-12-29T15:58:14.438Z,42.50
2018-12-29T16:00:45.808Z,45.40
2018-12-29T16:03:17.151Z,47.53
2018-12-29T16:05:48.881Z,50.83
2018-12-29T16:08:21.651Z,42.77
2018-12-29T16:10:54.377Z,45.47
2018-12-29T16:13:25.819Z,46.23
2018-12-29T16:15:56.937Z,46.27
2018-12-29T16:18:38.836Z,45.80
2018-12-29T16:21:09.644Z,47.10
2018-12-29T16:24:00.173Z,43.87
2018-12-29T16:26:33.083Z,45.00
2018-12-29T16:29:04.247Z,47.37
2018-12-29T16:31:35.870Z,46.73
2018-12-29T16:34:07.412Z,51.80
2018-12-29T16:37:02.418Z,47.17
2018-12-29T16:42:44.921Z,47.53
2018-12-29T16:45:17.340Z,44.87
2018-12-29T16:47:50.088Z,48.10
2018-12-29T16:50:40.379Z,43.43
2018-12-29T16:53:29.069Z,46.90
2018-12-29T16:55:56.359Z,48.53
2018-12-29T16:58:27.467Z,43.97
2018-12-29T17:01:37.250Z,50.53
2018-12-29T17:08:21.077Z,48.70
2018-12-29T17:11:18.335Z,46.00
2018-12-29T17:14:16.096Z,46.33
2018-12-29T17:17:13.864Z,46.03
2018-12-29T17:20:11.113Z,50.23
2018-12-29T17:23:09.096Z,43.03
2018-12-29T17:26:09.420Z,46.10
2018-12-29T17:28:40.210Z,42.40
2018-12-29T17:31:11.260Z,45.27
2018-12-29T17:33:42.098Z,43.93
2018-12-29T17:36:13.827Z,40.13
2018-12-29T17:38:44.595Z,47.83
2018-12-29T17:41:15.617Z,49.97
2018-12-29T17:43:46.652Z,43.37
2018-12-29T17:46:17.674Z,42.70
2018-12-29T17:48:48.443Z,45.13
2018-12-29T17:51:38.648Z,43.77
2018-12-29T17:54:11.589Z,44.47
2018-12-29T17:56:42.584Z,44.87
2018-12-29T17:59:24.472Z,47.37
2018-12-29T18:02:21.972Z,48.67
2018-12-29T18:05:12.041Z,48.37
2018-12-29T18:07:43.113Z,51.63
2018-12-29T18:10:14.154Z,43.07
2018-12-29T18:12:45.391Z,51.53
2018-12-29T18:15:16.448Z,51.10
2018-12-29T18:17:47.656Z,60.50
2018-12-29T18:20:18.439Z,49.80
2018-12-29T18:22:49.411Z,51.83
2018-12-29T18:25:20.764Z,47.90
2018-12-29T18:27:51.693Z,50.83
2018-12-29T18:30:23.000Z,55.20
2018-12-29T18:32:54.393Z,53.73
2018-12-29T18:35:25.848Z,52.90
2018-12-29T18:37:56.926Z,52.03
2018-12-29T18:40:27.986Z,50.80
2018-12-29T18:42:58.743Z,49.80
2018-12-29T18:45:31.060Z,52.40
2018-12-29T18:48:02.291Z,54.60
2018-12-29T18:50:33.229Z,55.13
2018-12-29T18:53:04.327Z,51.73
2018-12-29T18:55:35.319Z,50.63
2018-12-29T18:58:06.165Z,55.00
2018-12-29T19:00:37.108Z,53.80
2018-12-29T19:03:07.883Z,60.27
2018-12-29T19:05:38.881Z,54.97
2018-12-29T19:08:10.025Z,52.17
2018-12-29T19:10:41.305Z,51.30
2018-12-29T19:13:12.371Z,50.83
2018-12-29T19:15:43.800Z,54.53
2018-12-29T19:18:15.069Z,56.50
2018-12-29T19:20:46.600Z,54.80
2018-12-29T19:23:17.644Z,57.87
2018-12-29T19:25:48.841Z,54.53
2018-12-29T19:28:19.778Z,55.67
2018-12-29T19:30:51.226Z,60.00
2018-12-29T19:33:22.421Z,57.17
2018-12-29T19:35:53.504Z,57.23
2018-12-29T19:38:24.565Z,53.93
2018-12-29T19:40:55.561Z,60.53
2018-12-29T19:43:27.106Z,62.00
2018-12-29T19:45:58.115Z,63.30
2018-12-29T19:48:29.546Z,63.90
2018-12-29T19:51:00.820Z,61.97
2018-12-29T19:53:32.045Z,57.67
2018-12-29T19:56:02.814Z,56.53
2018-12-29T19:58:33.961Z,61.10
2018-12-29T20:01:04.827Z,68.07
2018-12-29T20:03:37.106Z,63.27
2018-12-29T20:06:11.232Z,59.27
2018-12-29T20:08:40.651Z,65.97
2018-12-29T20:11:11.859Z,66.50
2018-12-29T20:13:42.648Z,61.20
2018-12-29T20:16:13.473Z,67.33
2018-12-29T20:18:44.487Z,77.47
2018-12-29T20:21:15.741Z,65.20
2018-12-29T20:23:46.757Z,85.00
2018-12-29T20:26:17.552Z,68.60
2018-12-29T20:28:48.838Z,64.33
2018-12-29T20:31:19.649Z,63.10
2018-12-29T20:33:50.557Z,63.73
2018-12-29T20:36:21.670Z,60.27
2018-12-29T20:38:52.634Z,65.13
2018-12-29T20:41:23.955Z,62.00
2018-12-29T20:43:54.968Z,62.30
2018-12-29T20:46:25.751Z,65.70
2018-12-29T20:48:56.748Z,64.00
2018-12-29T20:54:17.801Z,62.87
2018-12-29T20:56:48.575Z,59.77
2018-12-29T20:59:19.596Z,61.13
2018-12-29T21:08:14.757Z,61.30
2018-12-29T21:10:45.776Z,62.30
2018-12-29T21:13:16.803Z,63.20
2018-12-29T21:15:48.778Z,58.70
2018-12-29T21:18:19.827Z,60.70
2018-12-29T21:20:50.853Z,63.50
2018-12-29T21:23:22.383Z,62.80
2018-12-29T21:25:53.431Z,56.97
2018-12-29T21:28:24.753Z,60.17
2018-12-29T21:30:56.095Z,64.43
2018-12-29T21:33:27.073Z,61.13
2018-12-29T21:35:58.169Z,60.47
2018-12-29T21:38:29.271Z,65.77
2018-12-29T21:41:00.430Z,64.37
2018-12-29T21:43:31.447Z,64.00
2018-12-29T21:46:02.214Z,62.57
2018-12-29T21:48:54.000Z,61.10
2018-12-29T21:51:25.051Z,67.67
2018-12-29T21:53:56.054Z,59.77
2018-12-29T21:56:27.041Z,80.23
2018-12-29T21:58:57.840Z,78.10
2018-12-29T22:01:28.617Z,56.13
2018-12-29T22:03:59.617Z,62.97
2018-12-29T22:06:30.409Z,60.53
2018-12-29T22:09:01.531Z,57.90
2018-12-29T22:11:33.812Z,55.00
2018-12-29T22:14:04.798Z,55.43
2018-12-29T22:16:35.562Z,55.80
2018-12-29T22:19:07.043Z,52.43
2018-12-29T22:21:37.796Z,50.77
2018-12-29T22:24:09.121Z,54.13
2018-12-29T22:26:40.114Z,50.40
2018-12-29T22:29:11.113Z,53.07
2018-12-29T22:31:42.143Z,54.33
2018-12-29T22:34:12.944Z,53.03
2018-12-29T22:36:43.929Z,51.07
2018-12-29T22:39:14.930Z,50.63
2018-12-29T22:41:46.340Z,44.93
2018-12-29T22:44:17.588Z,45.70
2018-12-29T22:46:48.915Z,41.37
2018-12-29T22:49:19.906Z,42.33
2018-12-29T22:51:50.953Z,43.03
2018-12-29T22:54:22.011Z,43.03
2018-12-29T22:56:52.903Z,44.03
2018-12-29T22:59:23.916Z,39.20
2018-12-29T23:01:54.676Z,49.13
2018-12-29T23:04:25.447Z,41.37
2018-12-29T23:06:56.281Z,38.97
2018-12-29T23:09:27.294Z,45.53
2018-12-29T23:11:58.291Z,37.37
2018-12-29T23:14:29.124Z,39.67
2018-12-29T23:17:00.700Z,35.47
2018-12-29T23:19:31.508Z,35.87
2018-12-29T23:22:02.740Z,38.90
2018-12-29T23:24:33.736Z,36.77
2018-12-29T23:27:04.576Z,36.77
2018-12-29T23:29:35.352Z,37.60
2018-12-29T23:32:06.176Z,37.00
2018-12-29T23:34:37.220Z,33.37
2018-12-29T23:37:08.234Z,33.67
2018-12-29T23:39:39.227Z,33.67
2018-12-29T23:42:10.253Z,31.83
2018-12-29T23:44:41.663Z,27.07
2018-12-29T23:47:12.650Z,26.50
2018-12-29T23:49:43.424Z,24.10
2018-12-29T23:52:14.639Z,22.83
2018-12-29T23:54:45.753Z,24.27
2018-12-29T23:57:16.838Z,26.30
2018-12-29T23:59:47.720Z,26.13
